Franklin, New York
Current Conditions -  °F | °C
As of 12:53 PM on Thursday 18 Dec 2014 (Local Time) from KBGM Reporting Station
Overcast Overcast  
Wind Chill: 19°   Ceiling: 800
Heat Index: 29°   Visibility: 10mi
Dew Point: 26°   Wind: 12mph
Humidity: 89%   Direction: 310°NW
Pressure: 29.92"   Gusts: NA
Location:  42.34°N, 75.17°W
Report Text: KBGM 181753Z 31010KT 10SM OVC008 M02/M03 A2992 RMK AO2 SLP151 T10171033 11017 21022 56018
Loading
Personal Weather Stations






























Interactive Weather Map New forecast layout! Learn more

10-Day Weather Forecast

Advertisements
Track Severe Weather on mobile